sensor_id;sensor_type;location;lat;lon;timestamp;pressure;altitude;pressure_sealevel;temperature;humidity
63916;BME280;50094;51.356;-0.196;2022-08-19T00:02:14;100606.49;;;26.94;43.14
63916;BME280;50094;51.356;-0.196;2022-08-19T00:04:41;100610.83;;;27.31;42.56
63916;BME280;50094;51.356;-0.196;2022-08-19T00:07:09;100613.02;;;26.84;42.85
63916;BME280;50094;51.356;-0.196;2022-08-19T00:09:37;100607.34;;;26.91;42.69
63916;BME280;50094;51.356;-0.196;2022-08-19T00:12:05;100606.45;;;27.25;42.15
63916;BME280;50094;51.356;-0.196;2022-08-19T00:14:32;100609.94;;;26.80;42.78
63916;BME280;50094;51.356;-0.196;2022-08-19T00:17:00;100606.86;;;27.00;42.56
63916;BME280;50094;51.356;-0.196;2022-08-19T00:19:28;100606.17;;;27.23;42.64
63916;BME280;50094;51.356;-0.196;2022-08-19T00:21:56;100601.67;;;27.20;42.27
63916;BME280;50094;51.356;-0.196;2022-08-19T00:24:24;100597.86;;;27.57;41.77
63916;BME280;50094;51.356;-0.196;2022-08-19T00:26:51;100598.18;;;27.48;42.13
63916;BME280;50094;51.356;-0.196;2022-08-19T00:29:20;100600.54;;;27.10;42.28
63916;BME280;50094;51.356;-0.196;2022-08-19T00:31:48;100597.76;;;26.86;42.77
63916;BME280;50094;51.356;-0.196;2022-08-19T00:34:16;100596.38;;;27.14;42.45
63916;BME280;50094;51.356;-0.196;2022-08-19T00:36:46;100596.52;;;27.43;42.57
63916;BME280;50094;51.356;-0.196;2022-08-19T00:39:14;100597.46;;;27.14;42.48
63916;BME280;50094;51.356;-0.196;2022-08-19T00:41:42;100596.11;;;27.37;42.34
63916;BME280;50094;51.356;-0.196;2022-08-19T00:44:14;100594.96;;;27.60;41.95
63916;BME280;50094;51.356;-0.196;2022-08-19T00:46:43;100587.78;;;27.31;42.22
63916;BME280;50094;51.356;-0.196;2022-08-19T00:49:14;100579.39;;;27.00;42.54
63916;BME280;50094;51.356;-0.196;2022-08-19T00:51:45;100579.25;;;26.83;43.29
63916;BME280;50094;51.356;-0.196;2022-08-19T00:54:15;100578.49;;;26.81;43.23
63916;BME280;50094;51.356;-0.196;2022-08-19T00:56:43;100576.07;;;27.03;42.79
63916;BME280;50094;51.356;-0.196;2022-08-19T00:59:13;100579.12;;;26.73;43.35
63916;BME280;50094;51.356;-0.196;2022-08-19T01:01:44;100580.61;;;27.17;42.76
63916;BME280;50094;51.356;-0.196;2022-08-19T01:04:12;100578.28;;;26.78;42.91
63916;BME280;50094;51.356;-0.196;2022-08-19T01:06:40;100577.23;;;27.29;42.38
63916;BME280;50094;51.356;-0.196;2022-08-19T01:09:08;100573.57;;;27.18;42.64
63916;BME280;50094;51.356;-0.196;2022-08-19T01:11:38;100572.98;;;27.54;42.34
63916;BME280;50094;51.356;-0.196;2022-08-19T01:14:07;100572.03;;;27.38;42.20
63916;BME280;50094;51.356;-0.196;2022-08-19T01:16:35;100572.62;;;27.39;42.13
63916;BME280;50094;51.356;-0.196;2022-08-19T01:19:10;100569.83;;;26.96;42.35
63916;BME280;50094;51.356;-0.196;2022-08-19T01:21:43;100569.78;;;27.39;42.15
63916;BME280;50094;51.356;-0.196;2022-08-19T01:30:47;100573.99;;;27.11;42.69
63916;BME280;50094;51.356;-0.196;2022-08-19T01:33:16;100575.71;;;27.03;42.60
63916;BME280;50094;51.356;-0.196;2022-08-19T01:35:43;100575.39;;;27.38;42.51
63916;BME280;50094;51.356;-0.196;2022-08-19T01:38:20;100571.97;;;27.18;42.81
63916;BME280;50094;51.356;-0.196;2022-08-19T01:40:48;100565.41;;;27.10;42.85
63916;BME280;50094;51.356;-0.196;2022-08-19T01:43:16;100562.79;;;27.16;42.89
63916;BME280;50094;51.356;-0.196;2022-08-19T01:45:44;100562.23;;;27.06;42.92
63916;BME280;50094;51.356;-0.196;2022-08-19T01:48:13;100563.48;;;27.12;42.74
63916;BME280;50094;51.356;-0.196;2022-08-19T01:50:40;100564.53;;;26.99;43.04
63916;BME280;50094;51.356;-0.196;2022-08-19T01:53:11;100565.43;;;27.17;42.68
63916;BME280;50094;51.356;-0.196;2022-08-19T01:55:41;100569.41;;;27.39;42.09
63916;BME280;50094;51.356;-0.196;2022-08-19T01:58:12;100569.96;;;27.02;42.15
63916;BME280;50094;51.356;-0.196;2022-08-19T02:00:43;100568.69;;;27.39;42.34
63916;BME280;50094;51.356;-0.196;2022-08-19T02:03:10;100569.59;;;27.50;42.33
63916;BME280;50094;51.356;-0.196;2022-08-19T02:05:38;100565.63;;;27.53;42.18
63916;BME280;50094;51.356;-0.196;2022-08-19T02:08:05;100561.04;;;27.26;42.19
63916;BME280;50094;51.356;-0.196;2022-08-19T02:10:33;100561.96;;;27.32;42.38
63916;BME280;50094;51.356;-0.196;2022-08-19T02:13:00;100562.48;;;27.43;42.17
63916;BME280;50094;51.356;-0.196;2022-08-19T02:15:28;100562.25;;;27.46;42.36
63916;BME280;50094;51.356;-0.196;2022-08-19T02:17:56;100559.77;;;26.92;42.88
63916;BME280;50094;51.356;-0.196;2022-08-19T02:20:23;100560.63;;;27.10;43.04
63916;BME280;50094;51.356;-0.196;2022-08-19T02:22:51;100561.30;;;26.94;43.34
63916;BME280;50094;51.356;-0.196;2022-08-19T02:25:18;100564.05;;;26.90;43.46
63916;BME280;50094;51.356;-0.196;2022-08-19T02:27:45;100564.43;;;27.30;42.76
63916;BME280;50094;51.356;-0.196;2022-08-19T02:30:15;100565.65;;;27.16;42.77
63916;BME280;50094;51.356;-0.196;2022-08-19T02:32:43;100564.35;;;27.18;42.84
63916;BME280;50094;51.356;-0.196;2022-08-19T02:35:11;100560.91;;;27.02;43.10
63916;BME280;50094;51.356;-0.196;2022-08-19T02:37:39;100562.79;;;27.00;43.21
63916;BME280;50094;51.356;-0.196;2022-08-19T02:40:07;100563.93;;;27.05;43.05
63916;BME280;50094;51.356;-0.196;2022-08-19T02:42:35;100567.30;;;26.99;43.17
63916;BME280;50094;51.356;-0.196;2022-08-19T02:45:04;100567.91;;;26.84;43.49
63916;BME280;50094;51.356;-0.196;2022-08-19T02:47:31;100572.39;;;27.27;43.37
63916;BME280;50094;51.356;-0.196;2022-08-19T02:50:01;100573.58;;;27.23;43.38
63916;BME280;50094;51.356;-0.196;2022-08-19T02:52:30;100568.50;;;27.20;42.97
63916;BME280;50094;51.356;-0.196;2022-08-19T02:54:58;100564.40;;;27.03;43.34
63916;BME280;50094;51.356;-0.196;2022-08-19T02:57:25;100564.41;;;27.14;43.16
63916;BME280;50094;51.356;-0.196;2022-08-19T02:59:53;100567.87;;;27.47;42.61
63916;BME280;50094;51.356;-0.196;2022-08-19T03:02:20;100568.71;;;27.51;42.74
63916;BME280;50094;51.356;-0.196;2022-08-19T03:04:48;100574.65;;;27.19;42.88
63916;BME280;50094;51.356;-0.196;2022-08-19T03:07:17;100579.06;;;27.15;43.11
63916;BME280;50094;51.356;-0.196;2022-08-19T03:09:45;100581.91;;;27.25;43.05
63916;BME280;50094;51.356;-0.196;2022-08-19T03:12:12;100584.42;;;27.06;43.13
63916;BME280;50094;51.356;-0.196;2022-08-19T03:14:39;100585.71;;;27.06;43.58
63916;BME280;50094;51.356;-0.196;2022-08-19T03:17:07;100581.43;;;26.70;43.94
63916;BME280;50094;51.356;-0.196;2022-08-19T03:19:35;100577.69;;;27.05;43.77
63916;BME280;50094;51.356;-0.196;2022-08-19T03:22:02;100579.04;;;27.18;43.38
63916;BME280;50094;51.356;-0.196;2022-08-19T03:24:30;100576.92;;;27.09;43.71
63916;BME280;50094;51.356;-0.196;2022-08-19T03:26:58;100579.53;;;27.16;43.69
63916;BME280;50094;51.356;-0.196;2022-08-19T03:29:26;100572.50;;;27.38;43.46
63916;BME280;50094;51.356;-0.196;2022-08-19T03:31:54;100571.50;;;26.95;44.19
63916;BME280;50094;51.356;-0.196;2022-08-19T03:34:24;100567.12;;;27.03;44.13
63916;BME280;50094;51.356;-0.196;2022-08-19T03:36:53;100566.74;;;27.28;44.01
63916;BME280;50094;51.356;-0.196;2022-08-19T03:39:21;100568.26;;;27.35;43.59
63916;BME280;50094;51.356;-0.196;2022-08-19T03:41:50;100569.48;;;27.17;44.23
63916;BME280;50094;51.356;-0.196;2022-08-19T03:44:19;100576.00;;;27.01;44.22
63916;BME280;50094;51.356;-0.196;2022-08-19T03:46:49;100577.93;;;27.31;43.63
63916;BME280;50094;51.356;-0.196;2022-08-19T03:49:17;100579.78;;;27.38;43.82
63916;BME280;50094;51.356;-0.196;2022-08-19T03:51:46;100582.72;;;26.82;44.33
63916;BME280;50094;51.356;-0.196;2022-08-19T03:54:17;100583.58;;;27.29;43.82
63916;BME280;50094;51.356;-0.196;2022-08-19T03:56:48;100584.25;;;27.02;44.00
63916;BME280;50094;51.356;-0.196;2022-08-19T03:59:18;100584.16;;;27.29;43.79
63916;BME280;50094;51.356;-0.196;2022-08-19T04:01:46;100584.50;;;27.43;43.65
63916;BME280;50094;51.356;-0.196;2022-08-19T04:04:13;100583.02;;;27.25;43.75
63916;BME280;50094;51.356;-0.196;2022-08-19T04:06:41;100584.54;;;27.81;43.06
63916;BME280;50094;51.356;-0.196;2022-08-19T04:09:10;100579.41;;;27.55;42.99
63916;BME280;50094;51.356;-0.196;2022-08-19T04:11:40;100576.24;;;27.31;43.67
63916;BME280;50094;51.356;-0.196;2022-08-19T04:14:08;100576.99;;;27.48;43.49
63916;BME280;50094;51.356;-0.196;2022-08-19T04:16:36;100579.82;;;27.10;44.10
63916;BME280;50094;51.356;-0.196;2022-08-19T04:19:05;100580.86;;;27.20;43.99
63916;BME280;50094;51.356;-0.196;2022-08-19T04:21:32;100582.84;;;27.08;44.26
63916;BME280;50094;51.356;-0.196;2022-08-19T04:24:01;100583.37;;;27.32;43.82
63916;BME280;50094;51.356;-0.196;2022-08-19T04:26:31;100585.73;;;27.39;43.68
63916;BME280;50094;51.356;-0.196;2022-08-19T04:29:00;100584.16;;;27.37;43.70
63916;BME280;50094;51.356;-0.196;2022-08-19T04:31:31;100585.32;;;27.24;43.93
63916;BME280;50094;51.356;-0.196;2022-08-19T04:34:00;100581.53;;;27.36;43.96
63916;BME280;50094;51.356;-0.196;2022-08-19T04:36:29;100584.41;;;27.44;43.79
63916;BME280;50094;51.356;-0.196;2022-08-19T04:38:59;100586.80;;;27.49;43.36
63916;BME280;50094;51.356;-0.196;2022-08-19T04:41:27;100590.95;;;27.55;43.43
63916;BME280;50094;51.356;-0.196;2022-08-19T04:43:54;100592.76;;;27.22;43.56
63916;BME280;50094;51.356;-0.196;2022-08-19T04:46:21;100596.00;;;27.13;44.09
63916;BME280;50094;51.356;-0.196;2022-08-19T04:48:49;100598.61;;;27.15;44.28
63916;BME280;50094;51.356;-0.196;2022-08-19T04:51:16;100600.07;;;27.07;44.33
63916;BME280;50094;51.356;-0.196;2022-08-19T04:53:44;100601.72;;;27.14;44.25
63916;BME280;50094;51.356;-0.196;2022-08-19T04:56:13;100603.86;;;27.34;44.01
63916;BME280;50094;51.356;-0.196;2022-08-19T04:58:43;100604.56;;;27.27;44.02
63916;BME280;50094;51.356;-0.196;2022-08-19T05:01:12;100612.02;;;26.65;45.29
63916;BME280;50094;51.356;-0.196;2022-08-19T05:03:40;100608.88;;;27.34;44.05
63916;BME280;50094;51.356;-0.196;2022-08-19T05:06:09;100617.12;;;27.28;44.09
63916;BME280;50094;51.356;-0.196;2022-08-19T05:08:39;100621.62;;;27.17;44.29
63916;BME280;50094;51.356;-0.196;2022-08-19T05:11:11;100621.48;;;27.13;44.41
63916;BME280;50094;51.356;-0.196;2022-08-19T05:13:38;100625.74;;;27.13;44.89
63916;BME280;50094;51.356;-0.196;2022-08-19T05:16:06;100629.82;;;26.97;44.73
63916;BME280;50094;51.356;-0.196;2022-08-19T05:18:34;100634.15;;;27.22;44.08
63916;BME280;50094;51.356;-0.196;2022-08-19T05:21:06;100631.98;;;27.02;44.59
63916;BME280;50094;51.356;-0.196;2022-08-19T05:23:33;100638.29;;;26.71;45.09
63916;BME280;50094;51.356;-0.196;2022-08-19T05:26:01;100639.74;;;26.79;44.98
63916;BME280;50094;51.356;-0.196;2022-08-19T05:28:28;100638.54;;;26.88;44.98
63916;BME280;50094;51.356;-0.196;2022-08-19T05:30:56;100641.79;;;26.90;44.76
63916;BME280;50094;51.356;-0.196;2022-08-19T05:33:24;100639.61;;;26.77;45.06
63916;BME280;50094;51.356;-0.196;2022-08-19T05:35:51;100641.57;;;26.57;45.57
63916;BME280;50094;51.356;-0.196;2022-08-19T05:38:19;100640.76;;;26.90;45.06
63916;BME280;50094;51.356;-0.196;2022-08-19T05:40:46;100642.34;;;26.58;45.66
63916;BME280;50094;51.356;-0.196;2022-08-19T05:43:14;100636.78;;;27.05;45.51
63916;BME280;50094;51.356;-0.196;2022-08-19T05:45:42;100636.77;;;26.48;45.46
63916;BME280;50094;51.356;-0.196;2022-08-19T05:48:11;100634.95;;;26.93;45.18
63916;BME280;50094;51.356;-0.196;2022-08-19T05:50:41;100639.10;;;27.00;45.32
63916;BME280;50094;51.356;-0.196;2022-08-19T05:53:08;100636.76;;;26.75;45.43
63916;BME280;50094;51.356;-0.196;2022-08-19T05:55:35;100643.36;;;26.69;45.18
63916;BME280;50094;51.356;-0.196;2022-08-19T05:58:03;100642.47;;;26.78;45.15
63916;BME280;50094;51.356;-0.196;2022-08-19T06:00:32;100648.26;;;26.60;45.34
63916;BME280;50094;51.356;-0.196;2022-08-19T06:02:59;100649.02;;;26.72;45.22
63916;BME280;50094;51.356;-0.196;2022-08-19T06:05:27;100647.66;;;26.89;44.80
63916;BME280;50094;51.356;-0.196;2022-08-19T06:07:53;100648.46;;;27.03;44.46
63916;BME280;50094;51.356;-0.196;2022-08-19T06:10:21;100651.82;;;26.70;44.98
63916;BME280;50094;51.356;-0.196;2022-08-19T06:12:49;100653.64;;;26.74;44.70
63916;BME280;50094;51.356;-0.196;2022-08-19T06:15:16;100661.12;;;26.70;45.06
63916;BME280;50094;51.356;-0.196;2022-08-19T06:17:44;100659.67;;;26.64;44.82
63916;BME280;50094;51.356;-0.196;2022-08-19T06:20:13;100661.05;;;26.61;44.95
63916;BME280;50094;51.356;-0.196;2022-08-19T06:22:43;100655.02;;;26.71;44.84
63916;BME280;50094;51.356;-0.196;2022-08-19T06:25:11;100661.00;;;26.67;45.21
63916;BME280;50094;51.356;-0.196;2022-08-19T06:27:39;100659.24;;;26.75;44.66
63916;BME280;50094;51.356;-0.196;2022-08-19T06:30:08;100661.39;;;26.47;44.85
63916;BME280;50094;51.356;-0.196;2022-08-19T06:32:35;100663.00;;;26.76;44.59
63916;BME280;50094;51.356;-0.196;2022-08-19T06:35:03;100662.08;;;26.48;44.69
63916;BME280;50094;51.356;-0.196;2022-08-19T06:37:31;100667.89;;;26.89;44.51
63916;BME280;50094;51.356;-0.196;2022-08-19T06:39:58;100667.38;;;26.79;44.61
63916;BME280;50094;51.356;-0.196;2022-08-19T06:42:25;100671.74;;;26.63;44.74
63916;BME280;50094;51.356;-0.196;2022-08-19T06:44:53;100670.75;;;26.56;44.50
63916;BME280;50094;51.356;-0.196;2022-08-19T06:47:21;100671.47;;;26.49;44.60
63916;BME280;50094;51.356;-0.196;2022-08-19T06:49:49;100666.85;;;26.84;44.35
63916;BME280;50094;51.356;-0.196;2022-08-19T06:52:16;100669.50;;;26.96;44.22
63916;BME280;50094;51.356;-0.196;2022-08-19T06:54:44;100667.84;;;26.76;44.30
63916;BME280;50094;51.356;-0.196;2022-08-19T06:57:11;100665.89;;;26.77;44.22
63916;BME280;50094;51.356;-0.196;2022-08-19T06:59:38;100665.95;;;26.95;43.90
63916;BME280;50094;51.356;-0.196;2022-08-19T07:02:06;100668.23;;;26.98;43.99
63916;BME280;50094;51.356;-0.196;2022-08-19T07:04:35;100671.49;;;27.11;44.05
63916;BME280;50094;51.356;-0.196;2022-08-19T07:07:05;100677.72;;;26.81;43.85
63916;BME280;50094;51.356;-0.196;2022-08-19T07:09:34;100682.92;;;26.70;44.44
63916;BME280;50094;51.356;-0.196;2022-08-19T07:12:02;100681.63;;;27.32;44.18
63916;BME280;50094;51.356;-0.196;2022-08-19T07:14:30;100679.90;;;27.92;43.02
63916;BME280;50094;51.356;-0.196;2022-08-19T07:16:57;100679.01;;;27.62;43.57
63916;BME280;50094;51.356;-0.196;2022-08-19T07:19:26;100679.79;;;27.63;43.81
63916;BME280;50094;51.356;-0.196;2022-08-19T07:21:55;100679.24;;;27.97;43.28
63916;BME280;50094;51.356;-0.196;2022-08-19T07:24:24;100681.11;;;28.40;42.77
63916;BME280;50094;51.356;-0.196;2022-08-19T07:26:55;100685.16;;;27.99;42.94
63916;BME280;50094;51.356;-0.196;2022-08-19T07:29:23;100686.43;;;28.14;42.71
63916;BME280;50094;51.356;-0.196;2022-08-19T07:31:50;100685.28;;;27.88;42.68
63916;BME280;50094;51.356;-0.196;2022-08-19T07:34:18;100682.43;;;27.99;42.53
63916;BME280;50094;51.356;-0.196;2022-08-19T07:36:45;100680.50;;;28.09;42.67
63916;BME280;50094;51.356;-0.196;2022-08-19T07:39:16;100688.13;;;28.26;42.35
63916;BME280;50094;51.356;-0.196;2022-08-19T07:41:44;100690.41;;;27.92;42.44
63916;BME280;50094;51.356;-0.196;2022-08-19T07:44:13;100689.62;;;28.21;42.25
63916;BME280;50094;51.356;-0.196;2022-08-19T07:46:42;100687.03;;;27.63;42.53
63916;BME280;50094;51.356;-0.196;2022-08-19T07:49:11;100684.00;;;27.78;42.42
63916;BME280;50094;51.356;-0.196;2022-08-19T07:51:39;100681.46;;;27.72;42.62
63916;BME280;50094;51.356;-0.196;2022-08-19T07:54:06;100687.45;;;27.41;42.34
63916;BME280;50094;51.356;-0.196;2022-08-19T07:56:34;100683.40;;;28.25;41.80
63916;BME280;50094;51.356;-0.196;2022-08-19T07:59:01;100679.76;;;27.68;41.57
63916;BME280;50094;51.356;-0.196;2022-08-19T08:01:29;100684.91;;;27.66;41.37
63916;BME280;50094;51.356;-0.196;2022-08-19T08:03:57;100685.43;;;27.85;41.11
63916;BME280;50094;51.356;-0.196;2022-08-19T08:06:25;100690.27;;;28.31;41.01
63916;BME280;50094;51.356;-0.196;2022-08-19T08:08:53;100692.31;;;28.49;40.89
63916;BME280;50094;51.356;-0.196;2022-08-19T08:11:20;100695.43;;;28.75;40.28
63916;BME280;50094;51.356;-0.196;2022-08-19T08:13:48;100700.18;;;28.73;39.98
63916;BME280;50094;51.356;-0.196;2022-08-19T08:16:16;100703.48;;;28.62;39.83
63916;BME280;50094;51.356;-0.196;2022-08-19T08:18:43;100711.03;;;28.27;39.86
63916;BME280;50094;51.356;-0.196;2022-08-19T08:21:10;100709.01;;;28.23;39.82
63916;BME280;50094;51.356;-0.196;2022-08-19T08:23:38;100709.47;;;28.31;39.57
63916;BME280;50094;51.356;-0.196;2022-08-19T08:26:06;100713.37;;;28.14;39.47
63916;BME280;50094;51.356;-0.196;2022-08-19T08:28:33;100717.77;;;27.89;39.48
63916;BME280;50094;51.356;-0.196;2022-08-19T08:31:01;100718.37;;;28.08;39.16
63916;BME280;50094;51.356;-0.196;2022-08-19T08:33:29;100716.08;;;28.09;39.01
63916;BME280;50094;51.356;-0.196;2022-08-19T08:35:57;100713.51;;;27.98;38.87
63916;BME280;50094;51.356;-0.196;2022-08-19T08:38:24;100715.72;;;27.69;38.92
63916;BME280;50094;51.356;-0.196;2022-08-19T08:40:55;100718.43;;;27.74;38.78
63916;BME280;50094;51.356;-0.196;2022-08-19T08:43:28;100718.69;;;27.67;38.58
63916;BME280;50094;51.356;-0.196;2022-08-19T08:46:01;100716.78;;;27.82;38.33
63916;BME280;50094;51.356;-0.196;2022-08-19T08:48:41;100713.93;;;27.74;38.20
63916;BME280;50094;51.356;-0.196;2022-08-19T08:51:17;100714.55;;;27.74;38.12
63916;BME280;50094;51.356;-0.196;2022-08-19T08:53:50;100715.15;;;27.82;37.95
63916;BME280;50094;51.356;-0.196;2022-08-19T08:56:20;100716.42;;;28.40;37.78
63916;BME280;50094;51.356;-0.196;2022-08-19T08:58:53;100716.41;;;27.84;37.81
63916;BME280;50094;51.356;-0.196;2022-08-19T09:01:22;100717.04;;;28.06;37.82
63916;BME280;50094;51.356;-0.196;2022-08-19T09:03:50;100713.01;;;27.78;37.76
63916;BME280;50094;51.356;-0.196;2022-08-19T09:06:24;100716.21;;;27.71;37.72
63916;BME280;50094;51.356;-0.196;2022-08-19T09:09:01;100713.09;;;27.58;37.59
63916;BME280;50094;51.356;-0.196;2022-08-19T09:11:39;100711.04;;;27.99;37.21
63916;BME280;50094;51.356;-0.196;2022-08-19T09:14:14;100707.23;;;27.86;36.88
63916;BME280;50094;51.356;-0.196;2022-08-19T09:16:46;100707.35;;;28.22;36.60
63916;BME280;50094;51.356;-0.196;2022-08-19T09:19:14;100707.86;;;28.07;36.27
63916;BME280;50094;51.356;-0.196;2022-08-19T09:21:41;100707.70;;;28.13;36.18
63916;BME280;50094;51.356;-0.196;2022-08-19T09:24:08;100707.03;;;27.93;35.98
63916;BME280;50094;51.356;-0.196;2022-08-19T09:26:36;100702.81;;;28.14;35.76
63916;BME280;50094;51.356;-0.196;2022-08-19T09:29:03;100701.32;;;28.06;35.99
63916;BME280;50094;51.356;-0.196;2022-08-19T09:31:31;100706.83;;;27.92;35.79
63916;BME280;50094;51.356;-0.196;2022-08-19T09:33:59;100705.79;;;28.32;35.77
63916;BME280;50094;51.356;-0.196;2022-08-19T09:36:28;100708.64;;;27.85;35.84
63916;BME280;50094;51.356;-0.196;2022-08-19T09:38:56;100704.08;;;28.12;35.82
63916;BME280;50094;51.356;-0.196;2022-08-19T09:41:24;100705.43;;;27.83;35.90
63916;BME280;50094;51.356;-0.196;2022-08-19T09:43:53;100706.08;;;28.09;35.96
63916;BME280;50094;51.356;-0.196;2022-08-19T09:46:22;100704.61;;;27.82;36.06
63916;BME280;50094;51.356;-0.196;2022-08-19T09:48:50;100708.26;;;28.15;36.17
63916;BME280;50094;51.356;-0.196;2022-08-19T09:51:21;100703.02;;;28.06;36.14
63916;BME280;50094;51.356;-0.196;2022-08-19T09:53:49;100705.75;;;28.06;36.20
63916;BME280;50094;51.356;-0.196;2022-08-19T09:56:19;100704.12;;;28.07;36.31
63916;BME280;50094;51.356;-0.196;2022-08-19T09:58:47;100705.11;;;27.98;36.43
63916;BME280;50094;51.356;-0.196;2022-08-19T10:01:17;100703.72;;;28.00;36.52
63916;BME280;50094;51.356;-0.196;2022-08-19T10:03:48;100711.84;;;27.72;36.90
63916;BME280;50094;51.356;-0.196;2022-08-19T10:06:17;100718.43;;;28.02;36.83
63916;BME280;50094;51.356;-0.196;2022-08-19T10:08:45;100720.92;;;27.93;37.23
63916;BME280;50094;51.356;-0.196;2022-08-19T10:11:13;100724.86;;;27.98;37.10
63916;BME280;50094;51.356;-0.196;2022-08-19T10:13:42;100725.22;;;27.91;37.32
63916;BME280;50094;51.356;-0.196;2022-08-19T10:16:11;100722.19;;;27.93;37.52
63916;BME280;50094;51.356;-0.196;2022-08-19T10:18:40;100716.37;;;28.25;37.59
63916;BME280;50094;51.356;-0.196;2022-08-19T10:21:10;100720.51;;;27.87;37.75
63916;BME280;50094;51.356;-0.196;2022-08-19T10:23:39;100722.46;;;27.91;37.75
63916;BME280;50094;51.356;-0.196;2022-08-19T10:26:07;100726.72;;;27.85;37.77
63916;BME280;50094;51.356;-0.196;2022-08-19T10:28:35;100722.59;;;27.99;37.52
63916;BME280;50094;51.356;-0.196;2022-08-19T10:31:04;100729.33;;;28.09;37.20
63916;BME280;50094;51.356;-0.196;2022-08-19T10:33:33;100735.03;;;28.32;37.05
63916;BME280;50094;51.356;-0.196;2022-08-19T10:36:03;100737.41;;;27.94;36.92
63916;BME280;50094;51.356;-0.196;2022-08-19T10:38:31;100739.31;;;27.94;36.58
63916;BME280;50094;51.356;-0.196;2022-08-19T10:41:06;100733.02;;;27.91;36.63
63916;BME280;50094;51.356;-0.196;2022-08-19T10:43:34;100730.74;;;28.17;36.69
63916;BME280;50094;51.356;-0.196;2022-08-19T10:46:02;100733.47;;;27.79;36.79
63916;BME280;50094;51.356;-0.196;2022-08-19T10:48:29;100734.37;;;27.81;36.84
63916;BME280;50094;51.356;-0.196;2022-08-19T10:50:57;100734.99;;;27.90;36.84
63916;BME280;50094;51.356;-0.196;2022-08-19T10:53:24;100736.22;;;27.95;36.82
63916;BME280;50094;51.356;-0.196;2022-08-19T10:55:52;100735.99;;;28.06;36.77
63916;BME280;50094;51.356;-0.196;2022-08-19T10:58:21;100739.61;;;28.27;36.83
63916;BME280;50094;51.356;-0.196;2022-08-19T11:00:51;100737.63;;;27.68;37.10
63916;BME280;50094;51.356;-0.196;2022-08-19T11:03:19;100733.11;;;28.12;36.98
63916;BME280;50094;51.356;-0.196;2022-08-19T11:05:46;100729.80;;;27.77;37.01
63916;BME280;50094;51.356;-0.196;2022-08-19T11:08:14;100731.53;;;27.79;37.03
63916;BME280;50094;51.356;-0.196;2022-08-19T11:10:42;100740.28;;;27.62;37.21
63916;BME280;50094;51.356;-0.196;2022-08-19T11:13:09;100733.81;;;27.74;37.08
63916;BME280;50094;51.356;-0.196;2022-08-19T11:15:36;100732.01;;;27.80;37.10
63916;BME280;50094;51.356;-0.196;2022-08-19T11:18:04;100738.56;;;27.84;37.06
63916;BME280;50094;51.356;-0.196;2022-08-19T11:20:32;100739.16;;;28.01;37.10
63916;BME280;50094;51.356;-0.196;2022-08-19T11:22:59;100738.81;;;27.85;37.15
63916;BME280;50094;51.356;-0.196;2022-08-19T11:25:27;100743.00;;;28.00;37.03
63916;BME280;50094;51.356;-0.196;2022-08-19T11:27:55;100740.40;;;28.10;37.05
63916;BME280;50094;51.356;-0.196;2022-08-19T11:30:22;100737.09;;;27.74;36.91
63916;BME280;50094;51.356;-0.196;2022-08-19T11:32:50;100734.41;;;27.89;36.81
63916;BME280;50094;51.356;-0.196;2022-08-19T11:35:18;100738.03;;;28.17;36.73
63916;BME280;50094;51.356;-0.196;2022-08-19T11:37:45;100739.73;;;27.76;36.81
63916;BME280;50094;51.356;-0.196;2022-08-19T11:40:13;100743.71;;;27.90;36.65
63916;BME280;50094;51.356;-0.196;2022-08-19T11:42:40;100744.07;;;27.90;36.16
63916;BME280;50094;51.356;-0.196;2022-08-19T11:45:09;100744.82;;;28.28;35.58
63916;BME280;50094;51.356;-0.196;2022-08-19T11:47:36;100739.29;;;27.93;35.36
63916;BME280;50094;51.356;-0.196;2022-08-19T11:50:05;100739.20;;;27.81;35.22
63916;BME280;50094;51.356;-0.196;2022-08-19T11:52:32;100738.83;;;28.17;35.16
63916;BME280;50094;51.356;-0.196;2022-08-19T11:55:00;100737.52;;;27.66;34.84
63916;BME280;50094;51.356;-0.196;2022-08-19T11:57:28;100734.45;;;28.07;34.56
63916;BME280;50094;51.356;-0.196;2022-08-19T11:59:55;100741.81;;;28.21;34.36
63916;BME280;50094;51.356;-0.196;2022-08-19T12:02:23;100739.22;;;27.88;34.17
63916;BME280;50094;51.356;-0.196;2022-08-19T12:04:50;100742.02;;;28.14;33.77
63916;BME280;50094;51.356;-0.196;2022-08-19T12:07:18;100734.74;;;28.01;33.61
63916;BME280;50094;51.356;-0.196;2022-08-19T12:09:45;100738.29;;;28.10;33.40
63916;BME280;50094;51.356;-0.196;2022-08-19T12:12:13;100741.84;;;28.13;33.27
63916;BME280;50094;51.356;-0.196;2022-08-19T12:14:40;100740.18;;;28.18;33.17
63916;BME280;50094;51.356;-0.196;2022-08-19T12:17:08;100742.97;;;28.02;33.22
63916;BME280;50094;51.356;-0.196;2022-08-19T12:19:36;100746.72;;;27.80;33.06
63916;BME280;50094;51.356;-0.196;2022-08-19T12:22:04;100742.06;;;27.90;32.71
63916;BME280;50094;51.356;-0.196;2022-08-19T12:24:32;100741.47;;;28.21;32.53
63916;BME280;50094;51.356;-0.196;2022-08-19T12:27:00;100743.98;;;27.84;32.51
63916;BME280;50094;51.356;-0.196;2022-08-19T12:29:28;100745.39;;;27.90;32.24
63916;BME280;50094;51.356;-0.196;2022-08-19T12:31:57;100743.37;;;27.91;32.33
63916;BME280;50094;51.356;-0.196;2022-08-19T12:34:25;100752.80;;;28.05;32.08
63916;BME280;50094;51.356;-0.196;2022-08-19T12:36:52;100744.28;;;27.94;31.94
63916;BME280;50094;51.356;-0.196;2022-08-19T12:39:20;100741.36;;;27.92;31.72
63916;BME280;50094;51.356;-0.196;2022-08-19T12:41:47;100745.82;;;28.36;31.39
63916;BME280;50094;51.356;-0.196;2022-08-19T12:44:15;100743.23;;;27.99;31.29
63916;BME280;50094;51.356;-0.196;2022-08-19T12:46:42;100741.91;;;27.98;31.14
63916;BME280;50094;51.356;-0.196;2022-08-19T12:49:10;100740.44;;;28.05;30.98
63916;BME280;50094;51.356;-0.196;2022-08-19T12:51:38;100747.01;;;28.12;30.78
63916;BME280;50094;51.356;-0.196;2022-08-19T12:54:05;100743.73;;;28.09;30.74